Time;durP1;ratioP1;P1;durP2;ratioP2;P2;SDS_P1;SDS_P2;PMS_P1;PMS_P2;Temp;Humidity;BMP_temperature;BMP_pressure;BME280_temperature;BME280_humidity;BME280_pressure;Samples;Min_cycle;Max_cycle;Signal;HPM_P1;HPM_P2
2022/04/13 00:01:12;;;;;;;22.45;12.45;;;13.90;99.90;;;;;;5015732;28;20052;-66
2022/04/13 00:03:37;;;;;;;18.13;12.80;;;14.10;99.90;;;;;;5024808;28;20048;-66
2022/04/13 00:06:03;;;;;;;14.15;12.05;;;13.90;99.90;;;;;;5022511;28;20060;-65
2022/04/13 00:08:28;;;;;;;20.85;13.25;;;13.80;99.90;;;;;;5032013;28;20076;-66
2022/04/13 00:10:54;;;;;;;14.98;10.93;;;13.70;99.90;;;;;;5030260;28;20045;-66
2022/04/13 00:13:19;;;;;;;16.88;12.25;;;13.60;99.90;;;;;;5026700;28;20046;-66
2022/04/13 00:15:45;;;;;;;20.75;12.75;;;13.70;99.90;;;;;;5028452;28;20041;-66
2022/04/13 00:18:10;;;;;;;20.20;14.07;;;13.60;99.90;;;;;;5029617;28;20089;-66
2022/04/13 00:20:36;;;;;;;20.02;13.73;;;13.50;99.90;;;;;;5023036;28;20081;-66
2022/04/13 00:23:03;;;;;;;17.52;13.10;;;13.50;99.90;;;;;;5023938;28;20452;-66
2022/04/13 00:25:29;;;;;;;24.13;15.52;;;13.40;99.90;;;;;;5029696;28;20041;-66
2022/04/13 00:27:55;;;;;;;15.82;12.30;;;13.50;99.90;;;;;;5027024;28;20045;-66
2022/04/13 00:30:21;;;;;;;16.60;12.10;;;13.50;99.90;;;;;;5027378;28;20049;-66
2022/04/13 00:32:47;;;;;;;25.88;14.40;;;13.40;99.90;;;;;;5028482;28;20044;-66
2022/04/13 00:35:12;;;;;;;16.77;13.10;;;13.30;99.90;;;;;;5024746;28;20041;-66
2022/04/13 00:37:39;;;;;;;18.00;13.07;;;13.20;99.90;;;;;;5027911;28;20152;-66
2022/04/13 00:40:06;;;;;;;18.05;13.48;;;13.30;99.90;;;;;;5018366;28;20132;-65
2022/04/13 00:42:31;;;;;;;29.33;15.63;;;13.10;99.90;;;;;;5028337;28;20056;-66
2022/04/13 00:44:57;;;;;;;25.25;16.55;;;13.30;99.90;;;;;;5026836;28;20045;-66
2022/04/13 00:47:24;;;;;;;21.60;15.45;;;13.40;99.90;;;;;;5014124;28;20045;-66
2022/04/13 00:49:50;;;;;;;32.05;15.20;;;13.30;99.90;;;;;;5025735;28;20049;-66
2022/04/13 00:52:19;;;;;;;23.42;14.02;;;13.30;99.90;;;;;;5028976;28;20033;-66
2022/04/13 00:54:48;;;;;;;22.35;16.10;;;13.30;99.90;;;;;;5028427;28;20053;-66
2022/04/13 00:57:16;;;;;;;22.88;16.25;;;13.30;99.90;;;;;;5020188;28;20121;-66
2022/04/13 00:59:44;;;;;;;24.40;16.40;;;13.20;99.90;;;;;;5015505;28;20041;-66
2022/04/13 01:02:12;;;;;;;24.50;16.33;;;13.30;99.90;;;;;;5029603;28;20049;-66
2022/04/13 01:04:38;;;;;;;28.25;16.75;;;13.30;99.90;;;;;;5028244;28;20724;-65
2022/04/13 01:07:09;;;;;;;24.85;17.15;;;13.20;99.90;;;;;;5020282;28;20045;-66
2022/04/13 01:09:36;;;;;;;23.23;17.35;;;13.40;99.90;;;;;;5028573;28;20041;-66
2022/04/13 01:12:01;;;;;;;29.73;19.05;;;13.50;99.90;;;;;;5020526;28;20045;-66
2022/04/13 01:14:28;;;;;;;28.20;18.67;;;13.40;99.90;;;;;;5020533;28;20041;-66
2022/04/13 01:16:54;;;;;;;28.67;19.92;;;13.30;99.90;;;;;;5020356;28;20382;-66
2022/04/13 01:19:19;;;;;;;25.08;17.83;;;13.40;99.90;;;;;;5029593;28;20052;-66
2022/04/13 01:21:52;;;;;;;22.75;17.15;;;13.50;99.90;;;;;;5028597;28;20459;-66
2022/04/13 01:24:18;;;;;;;20.50;16.80;;;13.50;99.90;;;;;;5023959;28;20050;-66
2022/04/13 01:26:44;;;;;;;25.73;16.90;;;13.60;99.90;;;;;;5026527;28;20558;-66
2022/04/13 01:29:11;;;;;;;23.40;17.25;;;13.50;99.90;;;;;;5017977;28;20050;-65
2022/04/13 01:31:36;;;;;;;21.00;16.25;;;13.50;99.90;;;;;;5023628;28;20113;-65
2022/04/13 01:34:04;;;;;;;30.70;17.88;;;13.60;99.90;;;;;;5028753;28;20127;-65
2022/04/13 01:36:31;;;;;;;33.55;18.08;;;13.60;99.90;;;;;;5021645;28;20053;-65
2022/04/13 01:38:57;;;;;;;27.95;17.08;;;13.60;99.90;;;;;;5021191;28;20047;-65
2022/04/13 01:41:22;;;;;;;29.80;19.40;;;13.60;99.90;;;;;;5024270;28;20217;-65
2022/04/13 01:43:48;;;;;;;25.95;16.65;;;13.60;99.90;;;;;;5020701;28;20052;-65
2022/04/13 01:46:13;;;;;;;27.40;17.35;;;13.50;99.90;;;;;;5020947;28;20546;-65
2022/04/13 01:48:39;;;;;;;29.92;15.45;;;13.40;99.90;;;;;;5026811;28;20054;-65
2022/04/13 01:51:04;;;;;;;22.95;15.10;;;13.50;99.90;;;;;;5022438;28;20523;-66
2022/04/13 01:53:30;;;;;;;19.38;13.02;;;13.60;99.90;;;;;;5020574;28;20060;-66
2022/04/13 01:55:57;;;;;;;20.70;13.50;;;13.70;99.90;;;;;;5028146;28;20770;-66
2022/04/13 01:58:23;;;;;;;23.40;13.07;;;13.70;99.90;;;;;;5027237;28;20077;-66
2022/04/13 02:00:54;;;;;;;22.17;13.45;;;13.70;99.90;;;;;;5022088;28;20713;-66
2022/04/13 02:03:27;;;;;;;19.23;12.10;;;13.70;99.90;;;;;;5024643;28;20048;-66
2022/04/13 02:05:53;;;;;;;24.65;13.00;;;13.70;99.90;;;;;;5024208;28;20037;-66
2022/04/13 02:08:20;;;;;;;20.40;11.70;;;13.80;99.90;;;;;;5033815;28;20057;-66
2022/04/13 02:10:46;;;;;;;25.40;11.65;;;13.80;99.90;;;;;;5024629;28;20046;-66
2022/04/13 02:13:12;;;;;;;23.40;10.23;;;13.80;99.90;;;;;;5035327;28;20069;-66
2022/04/13 02:15:38;;;;;;;24.73;9.85;;;13.80;99.90;;;;;;5026451;28;20252;-66
2022/04/13 02:18:05;;;;;;;22.90;11.25;;;13.80;99.90;;;;;;5023231;28;20628;-66
2022/04/13 02:20:30;;;;;;;23.35;10.63;;;13.70;99.90;;;;;;5022145;28;20052;-66
2022/04/13 02:22:56;;;;;;;20.80;10.80;;;13.70;99.90;;;;;;5027154;28;20405;-66
2022/04/13 02:25:21;;;;;;;15.93;10.32;;;13.70;99.90;;;;;;5021104;28;20648;-66
2022/04/13 02:27:47;;;;;;;22.08;9.38;;;13.70;99.90;;;;;;5033967;28;20045;-66
2022/04/13 02:30:12;;;;;;;14.20;8.55;;;13.70;99.90;;;;;;5026780;28;20030;-65
2022/04/13 02:32:39;;;;;;;23.23;10.18;;;13.80;99.90;;;;;;5018492;28;20053;-66
2022/04/13 02:35:06;;;;;;;25.38;10.57;;;13.60;99.90;;;;;;5030911;28;20041;-65
2022/04/13 02:37:31;;;;;;;20.90;11.63;;;13.70;99.90;;;;;;5032727;28;20053;-66
2022/04/13 02:39:57;;;;;;;15.15;10.18;;;13.60;99.90;;;;;;5033724;28;20047;-66
2022/04/13 02:42:22;;;;;;;18.75;9.63;;;13.40;99.90;;;;;;5024112;28;20125;-66
2022/04/13 02:44:48;;;;;;;20.05;11.45;;;13.40;99.90;;;;;;5026759;28;20050;-65
2022/04/13 02:47:13;;;;;;;22.58;13.45;;;13.30;99.90;;;;;;5034212;28;20409;-66
2022/04/13 02:49:39;;;;;;;15.98;11.70;;;13.20;99.90;;;;;;5026533;28;20591;-66
2022/04/13 02:52:05;;;;;;;18.08;11.85;;;13.10;99.90;;;;;;5027844;28;20099;-65
2022/04/13 02:54:31;;;;;;;18.38;12.63;;;13.00;99.90;;;;;;5031488;28;20053;-65
2022/04/13 02:56:56;;;;;;;18.75;13.10;;;12.90;99.90;;;;;;5029297;28;20448;-65
2022/04/13 02:59:22;;;;;;;23.90;13.73;;;12.90;99.90;;;;;;5023127;28;20060;-65
2022/04/13 03:01:49;;;;;;;22.17;12.77;;;12.80;99.90;;;;;;5030908;28;20048;-65
2022/04/13 03:04:16;;;;;;;18.38;14.65;;;12.80;99.90;;;;;;5030361;28;20053;-65
2022/04/13 03:06:42;;;;;;;28.60;14.43;;;12.80;99.90;;;;;;5021255;28;20049;-65
2022/04/13 03:09:07;;;;;;;23.48;13.35;;;12.80;99.90;;;;;;5028699;28;20050;-65
2022/04/13 03:11:33;;;;;;;22.63;14.02;;;12.80;99.90;;;;;;5028440;28;20037;-65
2022/04/13 03:13:59;;;;;;;30.33;15.38;;;12.80;99.90;;;;;;5031932;28;20413;-66
2022/04/13 03:16:24;;;;;;;17.17;14.35;;;12.70;99.90;;;;;;5029916;28;20069;-65
2022/04/13 03:18:50;;;;;;;19.35;15.40;;;12.70;99.90;;;;;;5024382;28;20397;-65
2022/04/13 03:21:15;;;;;;;24.98;15.65;;;12.60;99.90;;;;;;5022583;28;20038;-65
2022/04/13 03:23:41;;;;;;;25.90;17.05;;;12.50;99.90;;;;;;5026855;28;20041;-66
2022/04/13 03:26:07;;;;;;;26.48;17.92;;;12.60;99.90;;;;;;5030193;28;20175;-65
2022/04/13 03:28:33;;;;;;;22.38;15.95;;;12.60;99.90;;;;;;5026321;28;20561;-65
2022/04/13 03:30:59;;;;;;;30.85;16.75;;;12.60;99.90;;;;;;5028594;28;20069;-65
2022/04/13 03:33:25;;;;;;;27.75;18.60;;;12.60;99.90;;;;;;5030578;28;20064;-65
2022/04/13 03:35:51;;;;;;;27.27;18.98;;;12.60;99.90;;;;;;5025066;28;20073;-65
2022/04/13 03:38:17;;;;;;;26.20;18.90;;;12.70;99.90;;;;;;5021118;28;20042;-65
2022/04/13 03:40:42;;;;;;;35.88;19.45;;;12.70;99.90;;;;;;5024915;28;20107;-65
2022/04/13 03:43:08;;;;;;;26.75;17.48;;;12.70;99.90;;;;;;5030807;28;20504;-65
2022/04/13 03:45:33;;;;;;;32.00;20.15;;;12.70;99.90;;;;;;5026327;28;20145;-65
2022/04/13 03:47:59;;;;;;;27.27;18.88;;;12.70;99.90;;;;;;5028774;28;20127;-65
2022/04/13 03:50:24;;;;;;;24.77;18.30;;;12.60;99.90;;;;;;5029807;28;20042;-65
2022/04/13 03:52:50;;;;;;;26.35;17.77;;;12.70;99.90;;;;;;5025176;28;20048;-66
2022/04/13 03:55:19;;;;;;;26.10;17.95;;;12.50;99.90;;;;;;5021604;28;20064;-66
2022/04/13 03:57:44;;;;;;;23.35;17.17;;;12.50;99.90;;;;;;5026073;28;20056;-65
2022/04/13 04:00:10;;;;;;;28.70;18.90;;;12.60;99.90;;;;;;5023421;28;20046;-65
2022/04/13 04:02:39;;;;;;;25.08;16.45;;;12.60;99.90;;;;;;5028002;28;20049;-65
2022/04/13 04:05:05;;;;;;;20.50;16.52;;;12.70;99.90;;;;;;5028415;28;20045;-65
2022/04/13 04:07:31;;;;;;;26.42;16.20;;;12.70;99.90;;;;;;5024239;28;20430;-66
2022/04/13 04:09:56;;;;;;;22.52;16.42;;;12.80;99.90;;;;;;5022859;28;20048;-65
2022/04/13 04:12:22;;;;;;;28.20;17.35;;;12.90;99.90;;;;;;5029483;28;20048;-66
2022/04/13 04:14:47;;;;;;;24.33;16.33;;;12.80;99.90;;;;;;5031275;28;20052;-66
2022/04/13 04:17:13;;;;;;;26.88;17.38;;;12.70;99.90;;;;;;5023463;28;20046;-66
2022/04/13 04:19:38;;;;;;;26.30;16.65;;;12.80;99.90;;;;;;5028682;28;20140;-66
2022/04/13 04:22:04;;;;;;;28.15;18.38;;;12.80;99.90;;;;;;5027094;28;20124;-65
2022/04/13 04:24:29;;;;;;;21.85;17.08;;;12.80;99.90;;;;;;5024639;28;20045;-65
2022/04/13 04:26:57;;;;;;;27.63;18.13;;;12.70;99.90;;;;;;5029779;28;20045;-65
2022/04/13 04:29:23;;;;;;;26.98;16.33;;;12.70;99.90;;;;;;5026494;28;20045;-65
2022/04/13 04:31:56;;;;;;;26.67;16.05;;;12.70;99.90;;;;;;5024198;28;20037;-65
2022/04/13 04:34:23;;;;;;;26.90;16.05;;;12.70;99.90;;;;;;5027104;28;20484;-65
2022/04/13 04:36:49;;;;;;;26.55;16.95;;;12.80;99.90;;;;;;5021319;28;20037;-65
2022/04/13 04:39:14;;;;;;;29.00;17.25;;;12.70;99.90;;;;;;5025039;28;20511;-65
2022/04/13 04:41:40;;;;;;;25.80;17.13;;;12.70;99.90;;;;;;5029199;28;20405;-65
2022/04/13 04:44:07;;;;;;;23.02;16.02;;;12.70;99.90;;;;;;5017282;28;20068;-65
2022/04/13 04:46:32;;;;;;;23.00;15.65;;;12.70;99.90;;;;;;5022296;28;20091;-65
2022/04/13 04:48:58;;;;;;;26.05;18.50;;;12.70;99.90;;;;;;5028242;28;20397;-65
2022/04/13 04:51:23;;;;;;;22.98;17.15;;;12.70;99.90;;;;;;5026550;28;20038;-65
2022/04/13 04:53:49;;;;;;;24.05;16.13;;;12.70;99.90;;;;;;5027903;28;20061;-65
2022/04/13 04:56:15;;;;;;;29.20;17.25;;;12.70;99.90;;;;;;5022382;28;20049;-65
2022/04/13 04:58:41;;;;;;;25.10;15.32;;;12.70;99.90;;;;;;5025142;28;20065;-65
2022/04/13 05:01:06;;;;;;;24.33;15.93;;;12.70;99.90;;;;;;5025505;28;20060;-65
2022/04/13 05:03:33;;;;;;;22.98;15.52;;;12.70;99.90;;;;;;5018820;28;20037;-65
2022/04/13 05:05:59;;;;;;;26.00;16.23;;;12.70;99.90;;;;;;5028082;28;20474;-65
2022/04/13 05:08:25;;;;;;;24.45;16.35;;;12.70;99.90;;;;;;5023607;28;20076;-65
2022/04/13 05:10:53;;;;;;;25.40;16.48;;;12.60;99.90;;;;;;5024233;28;20117;-66
2022/04/13 05:13:19;;;;;;;28.17;17.08;;;12.60;99.90;;;;;;5019335;28;20069;-65
2022/04/13 05:15:45;;;;;;;23.23;18.05;;;12.50;99.90;;;;;;5030223;28;20084;-66
2022/04/13 05:18:11;;;;;;;28.75;17.60;;;12.50;99.90;;;;;;5022818;28;20507;-65
2022/04/13 05:20:37;;;;;;;24.85;17.73;;;12.50;99.90;;;;;;5020180;28;20464;-66
2022/04/13 05:23:03;;;;;;;23.17;17.23;;;12.50;99.90;;;;;;5018254;28;20081;-66
2022/04/13 05:25:28;;;;;;;26.85;17.67;;;12.50;99.90;;;;;;5024745;28;20080;-66
2022/04/13 05:27:54;;;;;;;25.52;18.30;;;12.50;99.90;;;;;;5028873;28;20144;-65
2022/04/13 05:30:20;;;;;;;24.50;17.75;;;12.50;99.90;;;;;;5017117;28;20502;-65
2022/04/13 05:32:56;;;;;;;23.15;18.40;;;12.50;99.90;;;;;;5027697;28;20049;-65
2022/04/13 05:35:22;;;;;;;23.75;17.17;;;12.50;99.90;;;;;;5021550;28;20049;-65
2022/04/13 05:37:47;;;;;;;22.48;18.20;;;12.50;99.90;;;;;;5025706;28;20902;-65
2022/04/13 05:40:14;;;;;;;23.90;17.13;;;12.50;99.90;;;;;;5023628;28;20041;-65
2022/04/13 05:42:39;;;;;;;24.45;17.05;;;12.60;99.90;;;;;;5027403;28;20045;-66
2022/04/13 05:45:06;;;;;;;24.38;16.55;;;12.60;99.90;;;;;;5020645;28;20103;-66
2022/04/13 05:47:31;;;;;;;25.50;18.40;;;12.60;99.90;;;;;;5027573;28;20045;-65
2022/04/13 05:49:57;;;;;;;20.67;16.20;;;12.60;99.90;;;;;;5027358;28;20045;-65
2022/04/13 05:52:23;;;;;;;24.67;15.80;;;12.60;99.90;;;;;;5018085;28;20049;-65
2022/04/13 05:54:48;;;;;;;29.52;17.17;;;12.70;99.90;;;;;;5023294;28;20061;-65
2022/04/13 05:57:14;;;;;;;23.35;16.05;;;12.70;99.90;;;;;;5029151;28;20041;-65
2022/04/13 05:59:39;;;;;;;28.02;15.82;;;12.70;99.90;;;;;;5028465;28;20057;-66
2022/04/13 06:02:05;;;;;;;20.33;15.48;;;12.70;99.90;;;;;;5020279;28;20048;-66
2022/04/13 06:04:30;;;;;;;20.65;14.10;;;12.70;99.90;;;;;;5027158;28;20053;-66
2022/04/13 06:06:56;;;;;;;23.13;16.08;;;12.70;99.90;;;;;;5025260;28;20056;-66
2022/04/13 06:09:22;;;;;;;29.00;15.02;;;12.70;99.90;;;;;;5024831;28;20071;-67
2022/04/13 06:11:49;;;;;;;24.83;14.45;;;12.80;99.90;;;;;;5015720;28;20073;-67
2022/04/13 06:14:14;;;;;;;23.88;14.20;;;12.80;99.90;;;;;;5028093;28;20091;-67
2022/04/13 06:16:40;;;;;;;25.55;13.13;;;12.80;99.90;;;;;;5024989;28;20457;-67
2022/04/13 06:19:06;;;;;;;27.60;14.70;;;12.80;99.90;;;;;;5022882;28;20041;-67
2022/04/13 06:21:31;;;;;;;23.55;13.25;;;12.80;99.90;;;;;;5024469;28;20125;-67
2022/04/13 06:23:57;;;;;;;29.70;14.45;;;12.80;99.90;;;;;;5027937;28;20037;-66
2022/04/13 06:26:22;;;;;;;24.45;13.52;;;12.90;99.90;;;;;;5028264;28;20037;-67
2022/04/13 06:28:48;;;;;;;19.17;11.95;;;12.90;99.90;;;;;;5018530;28;20060;-67
2022/04/13 06:31:13;;;;;;;25.67;12.68;;;12.90;99.90;;;;;;5018891;28;20038;-67
2022/04/13 06:33:39;;;;;;;22.38;12.27;;;12.90;99.90;;;;;;5018773;28;20641;-66
2022/04/13 06:36:06;;;;;;;19.17;11.05;;;12.90;99.90;;;;;;5029172;28;20152;-66
2022/04/13 06:38:32;;;;;;;20.27;10.93;;;12.90;99.90;;;;;;5024475;28;20489;-67
2022/04/13 06:40:57;;;;;;;21.40;11.55;;;12.90;99.90;;;;;;5015854;28;20057;-67
2022/04/13 06:43:23;;;;;;;22.83;11.75;;;13.00;99.90;;;;;;5020339;28;20046;-67
2022/04/13 06:45:48;;;;;;;26.02;12.65;;;13.00;99.90;;;;;;5020740;28;20053;-67
2022/04/13 06:48:14;;;;;;;21.17;12.10;;;13.00;99.90;;;;;;5022621;28;20042;-67
2022/04/13 06:50:39;;;;;;;21.70;14.38;;;13.00;99.90;;;;;;5022612;28;20056;-67
2022/04/13 06:53:05;;;;;;;15.98;12.43;;;13.00;99.90;;;;;;5019356;28;21263;-67
2022/04/13 06:55:31;;;;;;;26.73;15.02;;;13.00;99.90;;;;;;5022215;28;20132;-67
2022/04/13 06:57:56;;;;;;;22.73;12.88;;;13.10;99.90;;;;;;5024295;28;20505;-67
2022/04/13 07:00:22;;;;;;;37.60;14.90;;;13.20;99.90;;;;;;5013036;28;20044;-67
2022/04/13 07:02:48;;;;;;;20.35;13.65;;;13.10;99.90;;;;;;5018018;28;20134;-67
2022/04/13 07:05:14;;;;;;;20.35;13.15;;;13.20;99.90;;;;;;5031014;28;20045;-67
2022/04/13 07:07:39;;;;;;;20.33;13.45;;;13.30;99.90;;;;;;5022650;28;20119;-67
2022/04/13 07:10:05;;;;;;;22.65;12.98;;;13.30;99.90;;;;;;5024145;28;20046;-68
2022/04/13 07:12:35;;;;;;;22.85;13.30;;;13.40;99.90;;;;;;5016187;28;20541;-67
2022/04/13 07:15:01;;;;;;;24.35;16.35;;;13.50;99.90;;;;;;5023543;28;20045;-67
2022/04/13 07:17:27;;;;;;;26.40;13.88;;;13.50;99.90;;;;;;5022555;28;20049;-68
2022/04/13 07:19:52;;;;;;;27.60;14.60;;;13.50;99.90;;;;;;5028225;28;20172;-68
2022/04/13 07:22:18;;;;;;;25.25;14.15;;;13.60;99.90;;;;;;5032368;28;20049;-68
2022/04/13 07:24:44;;;;;;;24.58;16.27;;;13.60;99.90;;;;;;5024194;28;20042;-68
2022/04/13 07:27:09;;;;;;;30.08;15.27;;;13.60;99.90;;;;;;5023917;28;20140;-68
2022/04/13 07:29:35;;;;;;;28.00;15.57;;;13.70;99.90;;;;;;5031926;28;20087;-68
2022/04/13 07:32:00;;;;;;;28.95;15.35;;;13.80;99.90;;;;;;5030505;28;20041;-67
2022/04/13 07:34:26;;;;;;;21.05;13.93;;;13.90;99.90;;;;;;5017593;28;20037;-68
2022/04/13 07:36:51;;;;;;;26.35;14.38;;;13.90;99.90;;;;;;5032157;28;20053;-67
2022/04/13 07:39:17;;;;;;;22.70;14.05;;;14.00;99.90;;;;;;5032666;28;20033;-67
2022/04/13 07:41:43;;;;;;;24.02;13.55;;;14.20;99.90;;;;;;5021554;28;20169;-68
2022/04/13 07:44:09;;;;;;;28.67;13.02;;;14.30;99.90;;;;;;5027367;28;20145;-67
2022/04/13 07:46:34;;;;;;;22.90;12.27;;;14.30;99.90;;;;;;5028661;28;20128;-67
2022/04/13 07:49:01;;;;;;;24.88;12.30;;;14.40;99.90;;;;;;5022216;28;20084;-67
2022/04/13 07:51:27;;;;;;;26.63;12.18;;;14.30;99.90;;;;;;5015011;28;20046;-68
2022/04/13 07:53:52;;;;;;;23.08;12.15;;;14.50;99.90;;;;;;5016762;28;20054;-68
2022/04/13 07:56:18;;;;;;;19.10;12.00;;;14.60;99.90;;;;;;5029222;28;20048;-67
2022/04/13 07:58:45;;;;;;;21.13;11.15;;;14.70;99.90;;;;;;5029207;28;20053;-68
2022/04/13 08:01:10;;;;;;;19.73;12.25;;;14.70;99.90;;;;;;5023223;28;20063;-67
2022/04/13 08:03:36;;;;;;;22.88;11.90;;;14.70;99.90;;;;;;5022089;28;20093;-67
2022/04/13 08:06:02;;;;;;;18.58;11.40;;;14.70;99.90;;;;;;5030403;28;20045;-67
2022/04/13 08:08:28;;;;;;;18.50;10.90;;;14.80;99.90;;;;;;5027596;28;20060;-67
2022/04/13 08:10:53;;;;;;;20.30;12.00;;;14.80;99.90;;;;;;5024352;28;20461;-67
2022/04/13 08:13:19;;;;;;;18.33;10.35;;;14.70;99.90;;;;;;5024536;28;20486;-67
2022/04/13 08:15:45;;;;;;;20.10;10.95;;;14.70;99.90;;;;;;5017149;28;20123;-67
2022/04/13 08:18:11;;;;;;;25.35;11.32;;;14.70;99.90;;;;;;5023808;28;20088;-67
2022/04/13 08:20:36;;;;;;;16.30;10.27;;;14.70;99.90;;;;;;5020283;28;20496;-66
2022/04/13 08:23:02;;;;;;;21.60;11.48;;;14.70;99.90;;;;;;5025696;28;20042;-67
2022/04/13 08:25:27;;;;;;;21.60;11.20;;;14.90;99.90;;;;;;5023767;28;20045;-67
2022/04/13 08:27:53;;;;;;;26.13;11.15;;;15.20;99.90;;;;;;5023444;28;20042;-67
2022/04/13 08:30:18;;;;;;;22.42;9.45;;;15.60;99.90;;;;;;5019103;28;20041;-66
2022/04/13 08:32:44;;;;;;;17.90;9.48;;;15.80;99.90;;;;;;5025901;28;20041;-70
2022/04/13 08:35:11;;;;;;;19.70;8.93;;;16.10;99.90;;;;;;5028455;28;20382;-66
2022/04/13 08:37:37;;;;;;;21.25;10.85;;;16.60;99.90;;;;;;5030437;28;20405;-66
2022/04/13 08:40:03;;;;;;;17.30;10.32;;;17.30;99.90;;;;;;5022564;28;20044;-66
2022/04/13 08:42:48;;;;;;;20.23;9.25;;;17.50;99.90;;;;;;5026415;28;20046;-66
2022/04/13 08:45:23;;;;;;;14.60;9.15;;;18.10;99.90;;;;;;5036383;28;20057;-66
2022/04/13 08:47:50;;;;;;;19.45;9.27;;;18.10;99.90;;;;;;5018516;28;20058;-66
2022/04/13 08:50:17;;;;;;;16.17;9.15;;;17.90;99.90;;;;;;5029411;28;20164;-66
2022/04/13 08:52:49;;;;;;;18.33;8.35;;;18.00;99.90;;;;;;5023595;28;20045;-66
2022/04/13 08:55:16;;;;;;;18.23;10.10;;;18.30;99.90;;;;;;5023077;28;20068;-66
2022/04/13 08:57:47;;;;;;;19.90;8.32;;;18.60;99.90;;;;;;5016943;28;20037;-66
2022/04/13 09:00:17;;;;;;;22.27;9.60;;;18.80;99.90;;;;;;5021033;28;20128;-66
2022/04/13 09:03:09;;;;;;;13.45;9.07;;;18.80;99.90;;;;;;5020048;28;20037;-67
2022/04/13 09:05:36;;;;;;;20.08;8.20;;;18.80;99.90;;;;;;5025932;28;20050;-67
2022/04/13 09:08:17;;;;;;;17.10;8.27;;;19.00;99.90;;;;;;5030597;28;20045;-67
2022/04/13 09:10:43;;;;;;;16.75;8.07;;;19.00;99.90;;;;;;5021600;28;20049;-67
2022/04/13 09:13:10;;;;;;;19.77;9.32;;;19.20;99.90;;;;;;5025199;28;20061;-67
2022/04/13 09:15:38;;;;;;;17.38;8.23;;;19.20;99.90;;;;;;5027963;28;20045;-66
2022/04/13 09:18:08;;;;;;;22.50;8.35;;;19.30;99.90;;;;;;5027282;28;20470;-67
2022/04/13 09:20:35;;;;;;;16.38;7.88;;;19.40;99.90;;;;;;5021085;28;20041;-66
2022/04/13 09:23:01;;;;;;;22.83;9.63;;;19.40;99.90;;;;;;5023043;28;20046;-68
2022/04/13 09:25:29;;;;;;;19.42;7.07;;;19.90;99.90;;;;;;5020506;28;20041;-66
2022/04/13 09:27:56;;;;;;;24.30;8.65;;;19.60;99.90;;;;;;5026057;28;20556;-67
2022/04/13 09:30:21;;;;;;;21.73;8.02;;;19.60;99.90;;;;;;5021049;28;20456;-67
2022/04/13 09:32:49;;;;;;;22.40;10.38;;;19.30;99.90;;;;;;5024236;28;20069;-67
2022/04/13 09:35:14;;;;;;;18.67;7.65;;;19.60;99.90;;;;;;5026942;28;20107;-67
2022/04/13 09:37:40;;;;;;;18.05;8.43;;;19.80;99.90;;;;;;5018402;28;20053;-66
2022/04/13 09:40:06;;;;;;;21.25;8.07;;;19.80;99.90;;;;;;5030277;28;20045;-67
2022/04/13 09:42:34;;;;;;;22.55;8.18;;;19.90;99.90;;;;;;5028068;28;20042;-67
2022/04/13 09:45:03;;;;;;;19.58;9.93;;;19.80;99.90;;;;;;5024168;28;20050;-67
2022/04/13 09:47:31;;;;;;;18.98;8.90;;;19.30;99.90;;;;;;5029287;28;20045;-66
2022/04/13 09:49:57;;;;;;;20.33;7.68;;;19.20;99.90;;;;;;5023537;28;20490;-66
2022/04/13 09:52:41;;;;;;;20.00;7.00;;;18.90;99.90;;;;;;5020827;28;20049;-67
2022/04/13 09:55:08;;;;;;;14.63;6.63;;;18.70;99.90;;;;;;5016769;28;20085;-67
2022/04/13 09:57:34;;;;;;;14.82;7.38;;;18.20;99.90;;;;;;5024143;28;20045;-67
2022/04/13 10:00:05;;;;;;;18.40;8.48;;;17.90;99.90;;;;;;5019555;28;20088;-67
2022/04/13 10:02:41;;;;;;;18.20;8.38;;;17.60;99.90;;;;;;5019993;28;20084;-67
2022/04/13 10:05:09;;;;;;;15.93;7.72;;;17.50;99.90;;;;;;5024677;28;20037;-67
2022/04/13 10:07:35;;;;;;;12.68;7.28;;;17.40;99.90;;;;;;5027444;28;20436;-66
2022/04/13 10:10:01;;;;;;;21.20;8.35;;;17.10;99.90;;;;;;5019224;28;20477;-67
2022/04/13 10:12:27;;;;;;;20.95;8.52;;;17.10;99.90;;;;;;5028427;28;20515;-67
2022/04/13 10:15:05;;;;;;;19.08;8.77;;;17.00;99.90;;;;;;5021591;28;20042;-67
2022/04/13 10:17:33;;;;;;;17.88;8.18;;;16.90;99.90;;;;;;5025393;28;20054;-66
2022/04/13 10:19:59;;;;;;;23.15;8.25;;;17.00;99.90;;;;;;5029634;28;20398;-66
2022/04/13 10:22:24;;;;;;;18.10;7.72;;;17.20;99.90;;;;;;5024571;28;20049;-66
2022/04/13 10:24:50;;;;;;;20.73;8.43;;;17.20;99.90;;;;;;5021900;28;20053;-66
2022/04/13 10:27:19;;;;;;;15.15;7.70;;;17.40;99.90;;;;;;5030433;28;20033;-66
2022/04/13 10:29:46;;;;;;;14.00;6.88;;;17.40;99.90;;;;;;5029222;28;20030;-67
2022/04/13 10:32:15;;;;;;;14.77;6.32;;;17.40;99.90;;;;;;5031580;28;20404;-66
2022/04/13 10:34:41;;;;;;;25.00;7.30;;;17.30;99.90;;;;;;5021151;28;20124;-67
2022/04/13 10:37:08;;;;;;;13.65;4.93;;;17.40;99.90;;;;;;5031624;28;20516;-67
2022/04/13 10:39:35;;;;;;;20.60;7.32;;;17.40;99.90;;;;;;5026030;28;20046;-66
2022/04/13 10:42:08;;;;;;;19.58;6.50;;;17.30;99.90;;;;;;5024639;28;20048;-66
2022/04/13 10:44:41;;;;;;;23.42;7.88;;;17.30;99.90;;;;;;5024646;28;20060;-66
2022/04/13 10:47:12;;;;;;;14.30;6.43;;;17.30;99.90;;;;;;5019646;28;20045;-67
2022/04/13 10:49:57;;;;;;;23.77;8.50;;;17.50;99.90;;;;;;5024231;28;20045;-67
2022/04/13 10:52:37;;;;;;;16.20;7.40;;;17.50;99.90;;;;;;5026085;28;20084;-67
2022/04/13 10:55:10;;;;;;;15.75;7.93;;;17.50;99.90;;;;;;5020623;28;20053;-67
2022/04/13 10:57:40;;;;;;;16.17;7.50;;;17.40;99.90;;;;;;5019017;28;20060;-67
2022/04/13 11:00:07;;;;;;;20.48;8.10;;;17.20;99.90;;;;;;5031734;28;20080;-67
2022/04/13 11:02:55;;;;;;;19.17;8.18;;;17.10;99.90;;;;;;5027615;28;20034;-67
2022/04/13 11:05:22;;;;;;;17.40;7.10;;;17.00;99.90;;;;;;5047049;28;20124;-67
2022/04/13 11:08:02;;;;;;;20.50;8.50;;;17.00;99.90;;;;;;5032006;28;20041;-67
2022/04/13 11:10:31;;;;;;;12.32;6.20;;;16.80;99.90;;;;;;5025323;28;20049;-67
2022/04/13 11:12:58;;;;;;;14.18;6.70;;;16.70;99.90;;;;;;5030511;28;20456;-67
2022/04/13 11:15:45;;;;;;;18.85;7.35;;;16.50;99.90;;;;;;5031755;28;20064;-67
2022/04/13 11:18:17;;;;;;;15.32;6.60;;;16.60;99.90;;;;;;5031178;28;20038;-67
2022/04/13 11:21:01;;;;;;;22.20;7.97;;;16.40;99.90;;;;;;5026927;28;20092;-67
2022/04/13 11:24:05;;;;;;;20.45;7.88;;;16.40;99.90;;;;;;5030189;28;20515;-67
2022/04/13 11:26:33;;;;;;;11.57;7.55;;;16.20;99.90;;;;;;5043961;28;20186;-67
2022/04/13 11:29:17;;;;;;;17.63;8.30;;;16.10;99.90;;;;;;5066225;28;20048;-68
2022/04/13 11:32:01;;;;;;;15.65;7.18;;;16.20;99.90;;;;;;5043679;28;20188;-67
2022/04/13 11:34:49;;;;;;;;;;;16.20;99.90;;;;;;5034572;28;20045;-68
2022/04/13 11:37:34;;;;;;;24.45;7.43;;;16.20;99.90;;;;;;5028362;28;19928;-67
2022/04/13 11:40:05;;;;;;;17.13;6.80;;;16.20;99.90;;;;;;5023705;28;20056;-67
2022/04/13 11:42:46;;;;;;;17.80;6.57;;;16.10;99.90;;;;;;5024322;28;20056;-68
2022/04/13 11:45:16;;;;;;;16.63;6.70;;;16.00;99.90;;;;;;5028082;28;20057;-67
2022/04/13 11:47:48;;;;;;;20.70;6.88;;;16.00;99.90;;;;;;5017748;28;20044;-68
2022/04/13 11:50:14;;;;;;;18.45;7.18;;;16.00;99.90;;;;;;5025692;28;20164;-67
2022/04/13 11:52:50;;;;;;;20.30;7.50;;;16.00;99.90;;;;;;5030779;28;20049;-67
2022/04/13 11:55:20;;;;;;;18.20;5.93;;;16.00;99.90;;;;;;5029831;28;20523;-67
2022/04/13 11:58:02;;;;;;;15.50;6.88;;;16.00;99.90;;;;;;5027660;28;20046;-67
2022/04/13 12:00:57;;;;;;;15.68;6.55;;;16.00;99.90;;;;;;5021965;28;20041;-67
2022/04/13 12:03:26;;;;;;;17.42;6.93;;;16.00;99.90;;;;;;5026453;28;20076;-67
2022/04/13 12:05:52;;;;;;;15.38;7.07;;;15.90;99.90;;;;;;5029752;28;20037;-66
2022/04/13 12:08:21;;;;;;;17.73;8.18;;;15.80;99.90;;;;;;5023890;28;20045;-66
2022/04/13 12:10:49;;;;;;;15.63;8.45;;;15.80;99.90;;;;;;5026530;28;20049;-66
2022/04/13 12:13:15;;;;;;;16.80;8.23;;;15.80;99.90;;;;;;5026134;28;20045;-67
2022/04/13 12:15:52;;;;;;;23.55;9.30;;;15.80;99.90;;;;;;5026009;28;20542;-66
2022/04/13 12:18:22;;;;;;;14.70;8.95;;;15.80;99.90;;;;;;5019645;28;20054;-67
2022/04/13 12:20:49;;;;;;;26.10;11.98;;;15.80;99.90;;;;;;5015676;28;20420;-65
2022/04/13 12:23:25;;;;;;;21.27;10.80;;;15.80;99.90;;;;;;5020430;28;20041;-65
2022/04/13 12:25:53;;;;;;;19.38;9.57;;;15.80;99.90;;;;;;5028933;28;20455;-66
2022/04/13 12:28:20;;;;;;;16.05;9.23;;;15.90;99.90;;;;;;5019626;28;20072;-67
2022/04/13 12:30:55;;;;;;;19.02;8.50;;;16.00;99.90;;;;;;5025253;28;20060;-65
2022/04/13 12:33:24;;;;;;;27.20;10.13;;;16.20;99.90;;;;;;5017939;28;20120;-66